メインページ
METAR-TAF:

METAR-TAF

空港 :

クマック, ニューカレドニア

緯度: 20-34S, 経度: 164-17E, 海抜: 23m

METAR: 見つかりません

時間: 11:18 (00:18 UTC)

予報

当レポートは1時間18分前の23:00(UTC)に作成
予報は21日の 00時(UTC)から 21日の 24時(UTC)まで有効
の風 16kt
視程10km以上
高度4500ftの雲はほとんどない
21日の 07時(UTC)から 21日の 09時(UTC)まで徐々に
変向風 2kt
確率 30% :
21日の 18時(UTC)から 21日の 24時(UTC)まで一時的に
にわか雨
21日の 21時(UTC)から 21日の 24時(UTC)まで徐々に
南/南東の風 18kt、最大28ktの突風を伴う

TAF: NWWK 202300Z 2100/2124 17016KT 9999 FEW045 BECMG 2107/2109 VRB02KT PROB30 TEMPO 2118/2124 SHRA BECMG 2121/2124 15018G28KT

4,000以上の空港の気象観測と天気予報(METAR報とTAF報)

利用可能な観測所は地図上に黄色い丸と赤い丸で示す。

丸の上にカーソルを重ねると観測所名を参照できる。

次にクリックすると気象観測と天気予報を参照できる。

マップの切り替え:黒色「×」印の緑ボタンをクリックして拡大、「-」印の緑ボタンをクリックして縮小、緑色の三角印をクリックして隣りの地図に切り替え


METAR-TAF: